createdAt,value
2023-01-20T00:01:40.519Z,5.00
2023-01-20T00:04:07.314Z,4.00
2023-01-20T00:06:34.708Z,4.00
2023-01-20T00:09:03.939Z,4.75
2023-01-20T00:11:31.455Z,4.00
2023-01-20T00:14:00.277Z,2.00
2023-01-20T00:16:28.417Z,5.00
2023-01-20T00:18:55.540Z,5.00
2023-01-20T00:21:22.918Z,4.75
2023-01-20T00:23:50.160Z,5.00
2023-01-20T00:26:20.013Z,4.25
2023-01-20T00:28:48.069Z,2.25
2023-01-20T00:31:27.154Z,3.00
2023-01-20T00:33:57.032Z,5.00
2023-01-20T00:36:25.863Z,5.25
2023-01-20T00:38:52.896Z,5.25
2023-01-20T00:41:20.297Z,3.00
2023-01-20T00:43:47.352Z,2.00
2023-01-20T00:46:15.027Z,1.00
2023-01-20T00:48:42.233Z,1.75
2023-01-20T00:51:09.809Z,7.00
2023-01-20T00:53:37.527Z,3.00
2023-01-20T00:56:04.921Z,1.00
2023-01-20T00:58:32.201Z,4.00
2023-01-20T01:00:59.736Z,5.00
2023-01-20T01:03:27.432Z,5.00
2023-01-20T01:05:54.300Z,3.00
2023-01-20T01:08:21.736Z,2.50
2023-01-20T01:10:48.586Z,3.25
2023-01-20T01:13:15.488Z,2.25
2023-01-20T01:15:48.754Z,2.00
2023-01-20T01:18:15.887Z,2.00
2023-01-20T01:20:42.767Z,1.00
2023-01-20T01:23:09.647Z,3.25
2023-01-20T01:25:37.936Z,5.00
2023-01-20T01:28:05.167Z,2.25
2023-01-20T01:30:32.280Z,3.00
2023-01-20T01:32:59.198Z,5.00
2023-01-20T01:35:26.030Z,3.00
2023-01-20T01:37:53.004Z,1.75
2023-01-20T01:40:19.895Z,3.00
2023-01-20T01:42:46.920Z,3.00
2023-01-20T01:45:18.392Z,1.00
2023-01-20T01:47:50.726Z,4.00
2023-01-20T01:50:27.947Z,3.00
2023-01-20T01:52:57.026Z,1.00
2023-01-20T01:55:29.279Z,4.00
2023-01-20T01:57:59.012Z,3.00
2023-01-20T02:00:26.344Z,2.00
2023-01-20T02:02:55.201Z,2.00
2023-01-20T02:05:24.224Z,3.00
2023-01-20T02:07:52.216Z,4.00
2023-01-20T02:10:19.258Z,3.00
2023-01-20T02:12:48.994Z,3.00
2023-01-20T02:15:17.711Z,3.50
2023-01-20T02:17:53.335Z,1.00
2023-01-20T02:20:36.333Z,1.75
2023-01-20T02:23:40.499Z,1.00
2023-01-20T02:26:32.080Z,3.00
2023-01-20T02:29:25.102Z,2.00
2023-01-20T02:32:10.243Z,3.00
2023-01-20T02:35:09.897Z,2.00
2023-01-20T02:37:54.374Z,1.75
2023-01-20T02:40:44.340Z,1.00
2023-01-20T02:43:17.248Z,1.00
2023-01-20T02:45:53.355Z,4.00
2023-01-20T02:48:41.609Z,1.00
2023-01-20T02:51:43.094Z,2.00
2023-01-20T02:54:15.205Z,4.00
2023-01-20T02:56:43.052Z,2.00
2023-01-20T02:59:17.284Z,2.00
2023-01-20T03:01:50.662Z,1.00
2023-01-20T03:04:22.982Z,2.25
2023-01-20T03:06:54.542Z,1.00
2023-01-20T03:09:28.499Z,2.00
2023-01-20T03:12:01.014Z,1.00
2023-01-20T03:14:28.353Z,1.25
2023-01-20T03:16:55.473Z,3.00
2023-01-20T03:19:22.522Z,5.00
2023-01-20T03:21:49.525Z,3.50
2023-01-20T03:24:16.507Z,2.00
2023-01-20T03:26:43.470Z,3.00
2023-01-20T03:29:11.188Z,1.00
2023-01-20T03:31:50.803Z,3.00
2023-01-20T03:34:22.034Z,3.25
2023-01-20T03:36:50.371Z,1.00
2023-01-20T03:39:18.207Z,0.00
2023-01-20T03:42:13.756Z,2.00
2023-01-20T03:44:52.304Z,2.25
2023-01-20T03:47:41.171Z,0.25
2023-01-20T03:50:39.567Z,1.50
2023-01-20T03:53:09.594Z,3.00
2023-01-20T03:55:56.746Z,1.00
2023-01-20T03:58:31.412Z,1.25
2023-01-20T04:01:02.131Z,0.00
2023-01-20T04:03:48.800Z,1.00
2023-01-20T04:06:18.007Z,0.00
2023-01-20T04:08:51.994Z,1.00
2023-01-20T04:11:19.453Z,0.00
2023-01-20T04:13:46.310Z,0.00
2023-01-20T04:16:17.866Z,0.00
2023-01-20T04:18:49.000Z,0.50
2023-01-20T04:21:21.729Z,0.50
2023-01-20T04:23:57.960Z,0.00
2023-01-20T04:26:24.896Z,0.75
2023-01-20T04:28:51.755Z,0.00
2023-01-20T04:31:30.005Z,1.00
2023-01-20T04:33:57.669Z,0.00
2023-01-20T04:36:24.494Z,0.00
2023-01-20T04:38:51.623Z,0.00
2023-01-20T04:41:18.471Z,1.25
2023-01-20T04:43:46.369Z,0.25
2023-01-20T04:46:15.094Z,0.00
2023-01-20T04:48:44.223Z,1.00
2023-01-20T04:51:11.086Z,0.00
2023-01-20T04:53:38.282Z,1.00
2023-01-20T04:56:10.103Z,1.00
2023-01-20T04:58:37.139Z,1.75
2023-01-20T05:01:03.993Z,4.00
2023-01-20T05:03:30.974Z,3.00
2023-01-20T05:05:57.897Z,1.00
2023-01-20T05:08:24.947Z,0.00
2023-01-20T05:10:51.941Z,1.00
2023-01-20T05:13:18.835Z,1.00
2023-01-20T05:15:45.698Z,0.00
2023-01-20T05:18:12.706Z,0.00
2023-01-20T05:20:39.853Z,0.00
2023-01-20T05:23:06.744Z,0.00
2023-01-20T05:25:33.630Z,0.00
2023-01-20T05:28:00.593Z,0.75
2023-01-20T05:30:27.889Z,0.75
2023-01-20T05:32:54.923Z,0.00
2023-01-20T05:35:22.093Z,0.00
2023-01-20T05:37:52.404Z,0.00
2023-01-20T05:40:19.284Z,0.50
2023-01-20T05:42:46.270Z,0.00
2023-01-20T05:45:13.520Z,0.00
2023-01-20T05:47:40.591Z,0.00
2023-01-20T05:50:08.353Z,0.75
2023-01-20T05:52:35.153Z,0.75
2023-01-20T05:55:02.098Z,3.00
2023-01-20T05:57:28.983Z,1.00
2023-01-20T05:59:55.811Z,1.00
2023-01-20T06:02:22.746Z,1.75
2023-01-20T06:04:49.622Z,0.00
2023-01-20T06:07:16.560Z,1.00
2023-01-20T06:09:43.542Z,0.50
2023-01-20T06:12:10.425Z,0.00
2023-01-20T06:14:37.580Z,0.75
2023-01-20T06:17:04.610Z,0.00
2023-01-20T06:19:31.500Z,0.00
2023-01-20T06:21:58.466Z,0.00
2023-01-20T06:24:25.416Z,1.00
2023-01-20T06:26:52.281Z,0.00
2023-01-20T06:29:19.226Z,0.00
2023-01-20T06:31:46.567Z,0.00
2023-01-20T06:34:13.487Z,1.00
2023-01-20T06:36:40.484Z,0.00
2023-01-20T06:39:07.593Z,1.25
2023-01-20T06:41:34.550Z,2.00
2023-01-20T06:44:01.401Z,1.00
2023-01-20T06:46:28.397Z,1.50
2023-01-20T06:48:55.285Z,1.00
2023-01-20T06:51:22.152Z,0.00
2023-01-20T06:53:49.174Z,0.00
2023-01-20T06:56:16.254Z,0.00
2023-01-20T06:58:43.293Z,0.00
2023-01-20T07:01:22.806Z,0.00
2023-01-20T07:03:50.083Z,0.75
2023-01-20T07:06:30.383Z,1.00
2023-01-20T07:08:58.947Z,1.00
2023-01-20T07:11:26.875Z,1.00
2023-01-20T07:13:53.870Z,1.00
2023-01-20T07:16:20.859Z,0.00
2023-01-20T07:18:49.896Z,0.00
2023-01-20T07:21:17.701Z,1.00
2023-01-20T07:23:45.180Z,0.00
2023-01-20T07:26:15.390Z,0.00
2023-01-20T07:28:42.535Z,0.75
2023-01-20T07:31:21.571Z,0.00
2023-01-20T07:33:49.680Z,1.00
2023-01-20T07:36:17.010Z,0.00
2023-01-20T07:38:47.505Z,0.00
2023-01-20T07:41:14.450Z,0.50
2023-01-20T07:43:42.234Z,0.00
2023-01-20T07:46:10.429Z,0.00
2023-01-20T07:48:38.645Z,0.00
2023-01-20T07:51:08.425Z,1.50
2023-01-20T07:53:37.650Z,1.25
2023-01-20T07:56:12.636Z,1.00
2023-01-20T07:58:39.714Z,0.00
2023-01-20T08:01:15.597Z,1.00
2023-01-20T08:03:43.539Z,1.00
2023-01-20T08:06:13.341Z,1.00
2023-01-20T08:08:40.793Z,1.00
2023-01-20T08:11:08.501Z,1.00
2023-01-20T08:13:35.526Z,1.25
2023-01-20T08:16:05.187Z,2.00
2023-01-20T08:18:33.164Z,0.00
2023-01-20T08:21:00.048Z,1.00
2023-01-20T08:23:27.358Z,3.50
2023-01-20T08:26:02.199Z,3.00
2023-01-20T08:28:30.457Z,1.00
2023-01-20T08:31:12.553Z,2.00
2023-01-20T08:33:41.323Z,1.00
2023-01-20T08:36:11.472Z,2.00
2023-01-20T08:38:38.517Z,0.50
2023-01-20T08:41:23.732Z,1.00
2023-01-20T08:43:51.805Z,3.00
2023-01-20T08:46:21.226Z,1.00
2023-01-20T08:48:49.975Z,3.00
2023-01-20T08:51:20.998Z,2.00
2023-01-20T08:53:48.230Z,1.00
2023-01-20T08:56:16.192Z,0.00
2023-01-20T08:58:43.190Z,3.00
2023-01-20T09:01:15.734Z,3.00
2023-01-20T09:03:49.419Z,1.25
2023-01-20T09:06:26.544Z,1.50
2023-01-20T09:08:54.272Z,1.00
2023-01-20T09:11:22.913Z,0.00
2023-01-20T09:13:49.820Z,3.00
2023-01-20T09:16:19.837Z,1.00
2023-01-20T09:18:46.820Z,1.00
2023-01-20T09:21:13.725Z,2.00
2023-01-20T09:23:41.344Z,3.00
2023-01-20T09:26:09.621Z,1.00
2023-01-20T09:28:36.713Z,1.00
2023-01-20T09:31:09.096Z,1.25
2023-01-20T09:33:38.494Z,1.00
2023-01-20T09:36:07.928Z,2.50
2023-01-20T09:38:35.235Z,3.00
2023-01-20T09:41:27.980Z,1.50
2023-01-20T09:44:56.359Z,2.00
2023-01-20T09:47:31.849Z,1.00
2023-01-20T09:50:17.337Z,2.50
2023-01-20T09:52:45.115Z,3.00
2023-01-20T09:55:19.825Z,3.00
2023-01-20T09:57:54.383Z,2.00
2023-01-20T10:00:26.940Z,3.00
2023-01-20T10:03:05.683Z,3.00
2023-01-20T10:05:39.724Z,3.00
2023-01-20T10:08:13.698Z,3.00
2023-01-20T10:10:50.791Z,1.00
2023-01-20T10:13:31.395Z,3.00
2023-01-20T10:16:05.137Z,2.00
2023-01-20T10:18:54.028Z,1.25
2023-01-20T10:21:31.652Z,1.00
2023-01-20T10:24:29.638Z,1.00
2023-01-20T10:27:03.098Z,3.00
2023-01-20T10:29:38.004Z,4.75
2023-01-20T10:32:33.849Z,5.00
2023-01-20T10:35:23.426Z,1.00
2023-01-20T10:37:52.805Z,0.00
2023-01-20T10:40:44.682Z,2.00
2023-01-20T10:43:14.971Z,3.00
2023-01-20T10:46:01.554Z,2.25
2023-01-20T10:49:02.730Z,1.00
2023-01-20T10:51:46.053Z,1.00
2023-01-20T10:54:37.443Z,1.00
2023-01-20T10:57:10.537Z,1.75
2023-01-20T10:59:50.322Z,1.00
2023-01-20T11:02:29.462Z,0.00
2023-01-20T11:05:15.375Z,3.00
2023-01-20T11:07:44.587Z,3.75
2023-01-20T11:10:32.624Z,0.50
2023-01-20T11:13:01.923Z,0.00
2023-01-20T11:15:31.431Z,2.00
2023-01-20T11:18:16.641Z,1.00
2023-01-20T11:20:48.269Z,1.00
2023-01-20T11:23:26.740Z,1.00
2023-01-20T11:26:00.000Z,0.00
2023-01-20T11:28:29.098Z,0.25
2023-01-20T11:30:57.452Z,0.00
2023-01-20T11:33:27.639Z,0.25
2023-01-20T11:36:17.595Z,0.00
2023-01-20T11:38:49.443Z,0.00
2023-01-20T11:41:27.816Z,1.50
2023-01-20T11:43:59.678Z,0.00
2023-01-20T11:46:26.538Z,1.50
2023-01-20T11:49:22.106Z,0.00
2023-01-20T11:51:57.230Z,0.00
2023-01-20T11:54:26.809Z,0.00
2023-01-20T11:56:59.281Z,0.00
2023-01-20T11:59:32.066Z,0.00
2023-01-20T12:02:05.160Z,1.00
2023-01-20T12:04:50.694Z,0.00
2023-01-20T12:07:35.275Z,0.00
2023-01-20T12:10:14.696Z,0.00
2023-01-20T12:12:44.678Z,0.00
2023-01-20T12:15:27.956Z,0.00
2023-01-20T12:18:02.807Z,1.00
2023-01-20T12:20:56.155Z,0.00
2023-01-20T12:23:23.085Z,1.00
2023-01-20T12:26:00.725Z,0.00
2023-01-20T12:28:42.601Z,1.00
2023-01-20T12:31:11.314Z,3.00
2023-01-20T12:33:44.343Z,2.00
2023-01-20T12:36:43.533Z,0.00
2023-01-20T12:39:52.957Z,0.00
2023-01-20T12:42:44.175Z,0.00
2023-01-20T12:45:39.683Z,0.00
2023-01-20T12:48:39.073Z,0.00
2023-01-20T12:51:26.985Z,0.00
2023-01-20T12:54:47.457Z,0.00
2023-01-20T12:57:45.124Z,0.00
2023-01-20T13:00:27.627Z,0.00
2023-01-20T13:03:31.686Z,0.00
2023-01-20T13:06:20.649Z,0.00
2023-01-20T13:08:47.510Z,0.00
2023-01-20T13:11:51.387Z,0.00
2023-01-20T13:14:25.024Z,0.00
2023-01-20T13:17:05.796Z,0.00
2023-01-20T13:19:37.106Z,1.00
2023-01-20T13:22:19.941Z,0.00
2023-01-20T13:24:53.927Z,0.00
2023-01-20T13:27:30.444Z,0.00
2023-01-20T13:29:59.761Z,0.00
2023-01-20T13:32:45.859Z,0.00
2023-01-20T13:35:18.651Z,0.00
2023-01-20T13:38:03.859Z,0.00
2023-01-20T13:40:36.655Z,0.00
2023-01-20T13:43:23.866Z,1.00
2023-01-20T13:46:13.836Z,0.00
2023-01-20T13:49:18.288Z,0.00
2023-01-20T13:51:46.434Z,0.00
2023-01-20T13:54:25.302Z,0.00
2023-01-20T13:56:53.075Z,0.00
2023-01-20T13:59:19.987Z,0.00
2023-01-20T14:01:46.958Z,0.00
2023-01-20T14:04:19.090Z,0.00
2023-01-20T14:06:51.244Z,0.00
2023-01-20T14:09:26.278Z,0.00
2023-01-20T14:11:57.698Z,0.00
2023-01-20T14:14:27.007Z,0.00
2023-01-20T14:16:56.378Z,0.25
2023-01-20T14:19:32.103Z,0.00
2023-01-20T14:22:04.743Z,0.00
2023-01-20T14:24:43.344Z,0.00
2023-01-20T14:27:23.549Z,0.00
2023-01-20T14:29:52.879Z,0.00
2023-01-20T14:32:24.938Z,0.00
2023-01-20T14:34:53.345Z,0.00
2023-01-20T14:37:30.392Z,0.00
2023-01-20T14:40:00.525Z,0.00
2023-01-20T14:42:29.159Z,1.00
2023-01-20T14:44:57.954Z,0.00
2023-01-20T14:47:26.940Z,0.00
2023-01-20T14:49:54.808Z,0.00
2023-01-20T14:52:26.947Z,1.00
2023-01-20T14:54:54.145Z,0.00
2023-01-20T14:57:24.453Z,0.00
2023-01-20T15:00:13.217Z,0.00
2023-01-20T15:02:43.356Z,0.00
2023-01-20T15:05:31.982Z,0.00
2023-01-20T15:08:19.010Z,0.00
2023-01-20T15:10:46.063Z,0.00
2023-01-20T15:13:28.792Z,0.00
2023-01-20T15:16:24.921Z,0.00
2023-01-20T15:19:13.707Z,0.00
2023-01-20T15:21:43.626Z,0.00
2023-01-20T15:24:15.478Z,0.00
2023-01-20T15:26:43.037Z,0.00
2023-01-20T15:29:20.585Z,0.00
2023-01-20T15:31:48.248Z,0.00
2023-01-20T15:34:15.221Z,0.00
2023-01-20T15:36:44.275Z,0.00
2023-01-20T15:39:16.041Z,0.00
2023-01-20T15:41:43.477Z,0.00
2023-01-20T15:44:10.461Z,0.00
2023-01-20T15:46:37.454Z,0.00
2023-01-20T15:49:04.346Z,0.00
2023-01-20T15:51:31.310Z,0.00
2023-01-20T15:53:58.367Z,0.00
2023-01-20T15:56:30.993Z,0.00
2023-01-20T15:58:58.218Z,0.00
2023-01-20T16:01:27.302Z,0.00
2023-01-20T16:03:55.859Z,0.00
2023-01-20T16:06:33.496Z,1.00
2023-01-20T16:09:02.525Z,0.00
2023-01-20T16:11:29.526Z,0.00
2023-01-20T16:13:56.670Z,0.00
2023-01-20T16:16:24.241Z,0.00
2023-01-20T16:18:51.325Z,0.00
2023-01-20T16:21:19.477Z,0.00
2023-01-20T16:23:47.730Z,0.00
2023-01-20T16:26:20.838Z,1.00
2023-01-20T16:28:48.643Z,0.00
2023-01-20T16:31:15.934Z,0.00
2023-01-20T16:33:42.987Z,0.00
2023-01-20T16:36:15.218Z,0.00
2023-01-20T16:38:43.177Z,0.00
2023-01-20T16:41:27.569Z,0.00
2023-01-20T16:43:55.931Z,0.00
2023-01-20T16:46:27.382Z,0.00
2023-01-20T16:48:55.219Z,0.00
2023-01-20T16:51:23.412Z,0.00
2023-01-20T16:53:50.323Z,0.00
2023-01-20T16:56:22.814Z,0.00
2023-01-20T16:58:51.760Z,0.00
2023-01-20T17:01:20.508Z,0.00
2023-01-20T17:03:48.483Z,0.00
2023-01-20T17:06:20.418Z,0.00
2023-01-20T17:08:52.930Z,0.00
2023-01-20T17:11:35.196Z,0.00
2023-01-20T17:14:05.651Z,1.00
2023-01-20T17:16:33.272Z,0.00
2023-01-20T17:19:01.616Z,0.00
2023-01-20T17:21:30.919Z,0.00
2023-01-20T17:24:01.288Z,0.00
2023-01-20T17:26:28.868Z,0.00
2023-01-20T17:28:57.459Z,0.00
2023-01-20T17:31:24.419Z,0.00
2023-01-20T17:33:51.651Z,1.25
2023-01-20T17:36:18.739Z,0.00
2023-01-20T17:38:46.445Z,1.00
2023-01-20T17:41:14.909Z,0.00
2023-01-20T17:43:45.769Z,0.00
2023-01-20T17:46:18.189Z,0.00
2023-01-20T17:48:46.789Z,0.00
2023-01-20T17:51:19.479Z,0.00
2023-01-20T17:53:46.912Z,0.00
2023-01-20T17:56:15.364Z,0.00
2023-01-20T17:58:44.473Z,0.00
2023-01-20T18:01:18.266Z,0.00
2023-01-20T18:03:46.444Z,1.00
2023-01-20T18:06:14.786Z,0.00
2023-01-20T18:08:42.473Z,0.00
2023-01-20T18:11:12.359Z,0.00
2023-01-20T18:13:39.288Z,0.00
2023-01-20T18:16:08.315Z,0.00
2023-01-20T18:18:35.291Z,0.00
2023-01-20T18:21:16.794Z,0.00
2023-01-20T18:23:44.879Z,1.00
2023-01-20T18:26:13.641Z,0.00
2023-01-20T18:28:41.917Z,0.00
2023-01-20T18:31:17.511Z,0.00
2023-01-20T18:33:48.691Z,1.00
2023-01-20T18:36:30.344Z,0.00
2023-01-20T18:38:59.656Z,0.00
2023-01-20T18:41:28.766Z,1.00
2023-01-20T18:43:56.075Z,0.00
2023-01-20T18:46:23.592Z,0.00
2023-01-20T18:48:50.728Z,0.00
2023-01-20T18:51:20.266Z,0.50
2023-01-20T18:53:55.492Z,0.00
2023-01-20T18:56:23.142Z,0.00
2023-01-20T18:58:51.438Z,0.00
2023-01-20T19:01:23.698Z,0.00
2023-01-20T19:03:51.408Z,0.00
2023-01-20T19:06:20.991Z,0.00
2023-01-20T19:08:48.454Z,0.00
2023-01-20T19:11:21.603Z,0.00
2023-01-20T19:13:50.565Z,0.00
2023-01-20T19:16:21.619Z,0.00
2023-01-20T19:18:53.886Z,0.00
2023-01-20T19:21:22.262Z,0.00
2023-01-20T19:23:53.791Z,0.00
2023-01-20T19:26:22.638Z,0.00
2023-01-20T19:28:57.353Z,0.00
2023-01-20T19:31:24.619Z,0.00
2023-01-20T19:33:52.063Z,0.00
2023-01-20T19:36:19.562Z,0.00
2023-01-20T19:38:47.029Z,0.00
2023-01-20T19:41:17.084Z,0.00
2023-01-20T19:43:45.175Z,0.00
2023-01-20T19:46:15.362Z,0.00
2023-01-20T19:48:42.640Z,0.00
2023-01-20T19:51:12.278Z,0.00
2023-01-20T19:53:40.138Z,0.00
2023-01-20T19:56:09.683Z,0.00
2023-01-20T19:58:37.271Z,0.00
2023-01-20T20:01:09.435Z,0.00
2023-01-20T20:03:36.690Z,0.00
2023-01-20T20:06:06.574Z,1.50
2023-01-20T20:08:34.264Z,0.00
2023-01-20T20:11:01.176Z,0.00
2023-01-20T20:13:28.205Z,0.00
2023-01-20T20:16:02.805Z,0.00
2023-01-20T20:18:29.835Z,0.00
2023-01-20T20:20:56.883Z,0.00
2023-01-20T20:23:24.404Z,0.00
2023-01-20T20:25:52.705Z,0.00
2023-01-20T20:28:19.689Z,0.00
2023-01-20T20:30:46.687Z,0.00
2023-01-20T20:33:13.734Z,0.00
2023-01-20T20:35:40.623Z,0.00
2023-01-20T20:38:07.564Z,0.00
2023-01-20T20:40:34.775Z,0.00
2023-01-20T20:43:01.716Z,0.00
2023-01-20T20:45:28.554Z,0.00
2023-01-20T20:47:57.343Z,0.00
2023-01-20T20:50:24.200Z,0.00
2023-01-20T20:52:51.225Z,0.00
2023-01-20T20:55:18.108Z,1.00
2023-01-20T20:57:45.186Z,0.00
2023-01-20T21:00:12.645Z,0.00
2023-01-20T21:02:39.708Z,0.00
2023-01-20T21:05:07.405Z,0.00
2023-01-20T21:07:34.390Z,0.00
2023-01-20T21:10:01.243Z,0.00
2023-01-20T21:12:28.139Z,0.00
2023-01-20T21:14:55.093Z,0.00
2023-01-20T21:17:22.198Z,0.00
2023-01-20T21:19:51.438Z,0.00
2023-01-20T21:22:19.216Z,0.00
2023-01-20T21:24:46.118Z,0.00
2023-01-20T21:27:13.051Z,0.00
2023-01-20T21:29:39.953Z,0.00
2023-01-20T21:32:06.904Z,0.00
2023-01-20T21:34:33.769Z,0.00
2023-01-20T21:37:00.888Z,0.00
2023-01-20T21:39:27.737Z,0.00
2023-01-20T21:41:54.644Z,0.00
2023-01-20T21:44:21.532Z,0.00
2023-01-20T21:46:48.552Z,0.00
2023-01-20T21:49:15.538Z,0.00
2023-01-20T21:51:42.499Z,0.00
2023-01-20T21:54:09.348Z,0.00
2023-01-20T21:56:36.335Z,0.00
2023-01-20T21:59:03.407Z,0.00
2023-01-20T22:01:30.255Z,0.00
2023-01-20T22:03:57.092Z,0.00
2023-01-20T22:06:24.052Z,0.00
2023-01-20T22:08:50.856Z,0.00
2023-01-20T22:11:17.771Z,0.00
2023-01-20T22:13:44.672Z,0.00
2023-01-20T22:16:11.815Z,0.00
2023-01-20T22:18:38.643Z,0.00
2023-01-20T22:21:07.203Z,0.00
2023-01-20T22:23:35.348Z,0.00
2023-01-20T22:26:02.979Z,0.00
2023-01-20T22:28:30.200Z,0.00
2023-01-20T22:31:05.633Z,0.00
2023-01-20T22:33:32.718Z,0.00
2023-01-20T22:35:59.670Z,0.00
2023-01-20T22:38:26.639Z,0.00
2023-01-20T22:40:53.496Z,0.00
2023-01-20T22:43:20.688Z,0.00
2023-01-20T22:45:48.510Z,0.00
2023-01-20T22:48:15.586Z,0.00
2023-01-20T22:50:42.436Z,0.00
2023-01-20T22:53:09.474Z,0.00
2023-01-20T22:55:36.338Z,0.00
2023-01-20T22:58:03.267Z,0.00
2023-01-20T23:00:30.150Z,0.00
2023-01-20T23:02:57.211Z,0.00
2023-01-20T23:05:24.043Z,0.00
2023-01-20T23:07:50.926Z,0.00
2023-01-20T23:10:18.187Z,0.00
2023-01-20T23:12:45.325Z,0.00
2023-01-20T23:15:12.179Z,0.00
2023-01-20T23:17:39.143Z,0.00
2023-01-20T23:20:06.522Z,0.00
2023-01-20T23:22:33.443Z,0.00
2023-01-20T23:25:00.435Z,0.00
2023-01-20T23:27:27.342Z,0.00
2023-01-20T23:29:54.430Z,0.00
2023-01-20T23:32:21.464Z,0.00
2023-01-20T23:34:48.295Z,0.00
2023-01-20T23:37:16.570Z,0.00
2023-01-20T23:39:43.403Z,0.00
2023-01-20T23:42:10.327Z,0.00
2023-01-20T23:44:37.174Z,0.00
2023-01-20T23:47:04.159Z,0.00
2023-01-20T23:49:31.024Z,0.00
2023-01-20T23:51:57.986Z,0.00
2023-01-20T23:54:24.852Z,0.00
2023-01-20T23:56:52.010Z,0.00
2023-01-20T23:59:18.951Z,0.00
